Time;durP1;ratioP1;P1;durP2;ratioP2;P2;SDS_P1;SDS_P2;PMS_P1;PMS_P2;Temp;Humidity;BMP_temperature;BMP_pressure;BME280_temperature;BME280_humidity;BME280_pressure;Samples;Min_cycle;Max_cycle;Signal;HPM_P1;HPM_P2
2022/07/28 00:00:48;;;;;;;5.85;1.77;;;;;;;15.00;100.00;99078.84;4433582;32;20047;-73
2022/07/28 00:03:15;;;;;;;2.70;1.17;;;;;;;15.12;100.00;99108.34;4432064;32;20026;-75
2022/07/28 00:05:41;;;;;;;2.55;1.45;;;;;;;14.88;100.00;99071.00;4400150;32;20100;-72
2022/07/28 00:08:09;;;;;;;3.08;2.40;;;;;;;14.83;100.00;99072.94;4401261;32;20429;-73
2022/07/28 00:10:35;;;;;;;12.82;2.62;;;;;;;14.75;100.00;99074.31;4370373;32;20044;-74
2022/07/28 00:13:02;;;;;;;5.43;1.95;;;;;;;14.75;100.00;99062.69;4323340;33;20093;-74
2022/07/28 00:15:29;;;;;;;4.18;1.62;;;;;;;14.92;100.00;99092.16;4326028;33;20075;-74
2022/07/28 00:17:55;;;;;;;2.65;1.35;;;;;;;14.99;100.00;99103.53;4325486;33;20044;-73
2022/07/28 00:20:22;;;;;;;5.93;1.62;;;;;;;14.96;100.00;99098.66;4326573;33;20093;-73
2022/07/28 00:22:48;;;;;;;4.05;2.10;;;;;;;14.78;100.00;99076.47;4324686;33;20113;-76
2022/07/28 00:25:15;;;;;;;2.90;1.60;;;;;;;14.71;100.00;99073.25;4326403;33;20660;-73
2022/07/28 00:27:41;;;;;;;10.18;1.58;;;;;;;14.67;100.00;99053.22;4295682;33;20029;-73
2022/07/28 00:30:08;;;;;;;7.07;2.17;;;;;;;14.81;100.00;99075.94;4297208;33;20030;-73
2022/07/28 00:32:36;;;;;;;2.65;1.90;;;;;;;14.79;100.00;99071.84;4295758;33;20045;-73
2022/07/28 00:35:03;;;;;;;3.92;1.95;;;;;;;14.93;100.00;99093.78;4295210;33;20034;-73
2022/07/28 00:37:29;;;;;;;3.83;2.42;;;;;;;14.92;100.00;99108.41;4297157;33;20068;-73
2022/07/28 00:39:56;;;;;;;1.83;1.50;;;;;;;14.71;100.00;99074.06;4244625;33;20503;-73
2022/07/28 00:42:23;;;;;;;2.80;1.55;;;;;;;14.82;100.00;99085.69;4251789;33;20033;-72
2022/07/28 00:44:49;;;;;;;3.45;1.45;;;;;;;14.56;100.00;99062.44;4295933;33;20111;-75
2022/07/28 00:47:16;;;;;;;8.90;1.90;;;;;;;14.70;100.00;99101.44;4306532;33;20084;-72
2022/07/28 00:49:43;;;;;;;4.68;1.67;;;;;;;14.35;100.00;99057.06;4325541;33;20070;-73
2022/07/28 00:52:11;;;;;;;10.05;1.87;;;;;;;14.60;100.00;99096.03;4326086;33;20028;-72
2022/07/28 00:54:38;;;;;;;3.72;1.95;;;;;;;14.46;100.00;99102.00;4325296;33;20074;-72
2022/07/28 00:57:04;;;;;;;6.47;2.12;;;;;;;14.42;100.00;99100.91;4323785;33;20047;-75
2022/07/28 00:59:31;;;;;;;5.25;1.83;;;;;;;13.78;100.00;98994.84;4358800;32;20804;-74
2022/07/28 01:01:57;;;;;;;8.43;2.90;;;;;;;14.27;100.00;99052.19;4367862;32;20038;-73
2022/07/28 01:04:24;;;;;;;6.85;1.58;;;;;;;14.15;100.00;99053.28;4370241;32;20376;-73
2022/07/28 01:07:01;;;;;;;2.28;1.67;;;;;;;14.20;100.00;99059.78;4369233;32;20033;-73
2022/07/28 01:10:15;;;;;;;5.95;2.05;;;;;;;14.35;100.00;99097.69;4367769;32;20079;-73
2022/07/28 01:12:49;;;;;;;13.77;2.10;;;;;;;14.33;100.00;99080.91;4395373;32;20038;-73
2022/07/28 01:15:32;;;;;;;3.60;1.80;;;;;;;14.33;100.00;99087.13;4402519;32;20031;-73
2022/07/28 01:18:22;;;;;;;5.35;1.50;;;;;;;14.17;100.00;99067.38;4398155;32;20048;-76
2022/07/28 01:20:48;;;;;;;2.50;1.80;;;;;;;14.40;100.00;99097.66;4401977;32;20042;-73
2022/07/28 01:23:27;;;;;;;4.50;1.98;;;;;;;14.43;100.00;99096.31;4401854;32;20043;-73
2022/07/28 01:26:19;;;;;;;4.37;1.83;;;;;;;14.41;100.00;99093.87;4401259;32;20090;-73
2022/07/28 01:28:51;;;;;;;4.20;2.22;;;;;;;14.48;100.00;99096.31;4361231;32;20060;-73
2022/07/28 01:31:24;;;;;;;4.18;2.05;;;;;;;14.36;100.00;99069.53;4360452;32;20047;-74
2022/07/28 01:33:57;;;;;;;4.78;2.55;;;;;;;14.26;100.00;99047.84;4369278;32;20494;-74
2022/07/28 01:36:38;;;;;;;5.50;1.95;;;;;;;14.34;100.00;99098.75;4352432;32;20110;-73
2022/07/28 01:39:05;;;;;;;8.18;1.85;;;;;;;13.75;100.00;99017.06;4350231;32;20020;-72
2022/07/28 01:41:33;;;;;;;6.75;2.95;;;;;;;14.26;100.00;99093.91;4354306;32;20036;-73
2022/07/28 01:44:07;;;;;;;12.18;3.08;;;;;;;14.09;100.00;99065.22;4351881;32;20025;-72
2022/07/28 01:46:36;;;;;;;5.35;2.35;;;;;;;14.26;100.00;99110.94;4344950;32;20032;-74
2022/07/28 01:49:02;;;;;;;6.22;2.08;;;;;;;14.02;100.00;99075.50;4352142;32;20406;-74
2022/07/28 01:51:31;;;;;;;2.37;1.80;;;;;;;13.80;100.00;99057.63;4354957;32;20038;-73
2022/07/28 01:54:00;;;;;;;7.50;1.70;;;;;;;13.66;100.00;99067.38;4354476;32;20052;-73
2022/07/28 01:56:29;;;;;;;6.22;2.28;;;;;;;13.69;100.00;99109.28;4354487;32;20035;-73
2022/07/28 01:58:58;;;;;;;4.28;1.77;;;;;;;13.39;100.00;99100.84;4345467;32;20178;-73
2022/07/28 02:01:27;;;;;;;10.15;2.10;;;;;;;13.24;100.00;99079.13;4353606;32;20109;-73
2022/07/28 02:03:57;;;;;;;4.25;2.08;;;;;;;12.81;100.00;99029.78;4354097;32;20061;-74
2022/07/28 02:06:25;;;;;;;3.92;2.15;;;;;;;13.23;100.00;99096.47;4354422;32;20100;-74
2022/07/28 02:08:52;;;;;;;6.18;2.05;;;;;;;13.00;100.00;99076.91;4352992;32;20091;-75
2022/07/28 02:14:12;;;;;;;4.20;2.10;;;;;;;13.27;100.00;99108.34;4352552;32;20039;-75
2022/07/28 02:16:43;;;;;;;2.97;1.87;;;;;;;12.84;100.00;99045.47;4351163;32;20039;-74
2022/07/28 02:19:12;;;;;;;5.20;2.28;;;;;;;13.37;100.00;99111.13;4354561;32;20028;-73
2022/07/28 02:21:40;;;;;;;5.40;2.08;;;;;;;12.99;100.00;99080.69;4354533;32;20037;-73
2022/07/28 02:24:09;;;;;;;3.78;2.45;;;;;;;13.18;100.00;99115.34;4354373;32;20407;-74
2022/07/28 02:26:40;;;;;;;6.62;2.42;;;;;;;13.11;100.00;99114.78;4352467;33;20481;-74
2022/07/28 02:29:11;;;;;;;4.05;1.85;;;;;;;12.74;100.00;99078.69;4328046;33;20049;-74
2022/07/28 02:31:50;;;;;;;2.87;2.53;;;;;;;12.98;100.00;99114.19;4357119;32;20399;-73
2022/07/28 02:34:21;;;;;;;6.40;2.10;;;;;;;12.92;100.00;99112.53;4363242;32;20035;-74
2022/07/28 02:36:56;;;;;;;2.80;2.33;;;;;;;12.93;100.00;99124.19;4363894;32;20058;-73
2022/07/28 02:39:29;;;;;;;6.60;2.67;;;;;;;12.66;100.00;99082.69;4364600;32;20150;-73
2022/07/28 02:42:12;;;;;;;6.07;2.60;;;;;;;12.80;100.00;99114.66;4362969;32;20049;-75
2022/07/28 02:44:43;;;;;;;4.87;2.47;;;;;;;12.10;100.00;99014.88;4361715;32;20051;-73
2022/07/28 02:47:15;;;;;;;2.60;2.40;;;;;;;12.56;100.00;99088.03;4361038;32;20028;-73
2022/07/28 02:49:43;;;;;;;12.25;2.33;;;;;;;12.52;100.00;99095.03;4347336;33;20073;-75
2022/07/28 02:52:12;;;;;;;11.95;2.85;;;;;;;12.72;100.00;99134.88;4346773;33;20024;-73
2022/07/28 02:54:40;;;;;;;8.48;2.95;;;;;;;12.74;100.00;99126.50;4346073;33;20358;-73
2022/07/28 02:57:11;;;;;;;5.53;2.47;;;;;;;12.72;100.00;99124.87;4348168;33;20432;-72
2022/07/28 02:59:38;;;;;;;6.32;2.83;;;;;;;12.47;100.00;99095.00;4351628;33;20043;-74
2022/07/28 03:02:06;;;;;;;4.40;2.50;;;;;;;12.14;100.00;99048.34;4352222;33;20129;-75
2022/07/28 03:07:19;;;;;;;4.43;2.37;;;;;;;12.41;100.00;99102.25;4371051;32;20062;-73
2022/07/28 03:09:46;;;;;;;6.70;2.60;;;;;;;12.24;100.00;99070.03;4374114;32;20070;-75
2022/07/28 03:12:13;;;;;;;5.22;2.92;;;;;;;12.74;100.00;99142.72;4375574;32;20476;-73
2022/07/28 03:14:40;;;;;;;4.85;3.10;;;;;;;12.71;100.00;99150.25;4377182;32;20035;-73
2022/07/28 03:17:07;;;;;;;6.78;3.67;;;;;;;12.49;100.00;99123.38;4375957;32;20039;-73
2022/07/28 03:19:34;;;;;;;9.27;3.20;;;;;;;12.60;100.00;99150.44;4396484;32;20031;-74
2022/07/28 03:22:00;;;;;;;8.30;3.90;;;;;;;12.59;100.00;99152.34;4430227;32;20039;-76
2022/07/28 03:24:31;;;;;;;4.97;2.72;;;;;;;12.55;100.00;99156.63;4396955;32;20022;-73
2022/07/28 03:27:11;;;;;;;4.78;2.62;;;;;;;12.34;100.00;99120.56;4384165;32;20031;-73
2022/07/28 03:29:40;;;;;;;5.15;2.72;;;;;;;12.63;100.00;99164.25;4396243;32;20506;-73
2022/07/28 03:32:07;;;;;;;3.78;2.55;;;;;;;12.43;100.00;99137.09;4393318;32;20020;-74
2022/07/28 03:34:33;;;;;;;11.32;2.60;;;;;;;12.62;100.00;99168.03;4399757;32;20103;-73
2022/07/28 03:37:07;;;;;;;8.00;2.40;;;;;;;12.66;100.00;99158.31;4401840;32;20039;-72
2022/07/28 03:39:38;;;;;;;3.37;3.03;;;;;;;12.37;100.00;99132.75;4401918;32;20443;-73
2022/07/28 03:42:05;;;;;;;4.30;2.60;;;;;;;12.60;100.00;99169.34;4397031;32;20399;-74
2022/07/28 03:44:32;;;;;;;7.65;2.78;;;;;;;12.59;100.00;99163.16;4401335;32;20476;-73
2022/07/28 03:46:58;;;;;;;3.10;2.37;;;;;;;12.38;100.00;99139.75;4394966;32;20413;-73
2022/07/28 03:49:25;;;;;;;3.90;2.92;;;;;;;12.62;100.00;99178.00;4392033;32;20091;-74
2022/07/28 03:51:51;;;;;;;7.47;2.67;;;;;;;12.74;100.00;99172.44;4394148;32;20072;-73
2022/07/28 03:54:18;;;;;;;8.98;3.15;;;;;;;12.51;100.00;99147.44;4391907;32;20031;-75
2022/07/28 03:56:44;;;;;;;7.82;3.10;;;;;;;12.64;100.00;99143.47;4394937;32;20885;-73
2022/07/28 03:59:11;;;;;;;8.48;2.70;;;;;;;12.58;100.00;99147.22;4394934;32;20019;-73
2022/07/28 04:01:37;;;;;;;8.30;3.30;;;;;;;12.84;100.00;99177.87;4379569;32;20045;-73
2022/07/28 04:04:04;;;;;;;4.40;2.50;;;;;;;12.88;100.00;99184.41;4378272;32;20396;-72
2022/07/28 04:06:30;;;;;;;8.15;3.87;;;;;;;12.82;100.00;99178.16;4375973;32;20129;-72
2022/07/28 04:08:56;;;;;;;18.23;3.85;;;;;;;12.70;100.00;99147.81;4379192;32;20124;-73
2022/07/28 04:11:23;;;;;;;9.98;3.83;;;;;;;12.97;100.00;99185.56;4378445;32;20075;-73
2022/07/28 04:13:50;;;;;;;9.02;4.15;;;;;;;12.83;100.00;99162.78;4333546;33;20402;-73
2022/07/28 04:16:16;;;;;;;7.37;3.40;;;;;;;13.11;100.00;99185.87;4334689;33;20028;-73
2022/07/28 04:18:42;;;;;;;8.55;3.80;;;;;;;13.17;100.00;99189.44;4342583;32;20105;-73
2022/07/28 04:21:09;;;;;;;7.05;4.05;;;;;;;13.17;100.00;99184.03;4346455;32;20459;-74
2022/07/28 04:23:35;;;;;;;11.90;4.72;;;;;;;13.13;100.00;99156.72;4349995;32;20039;-73
2022/07/28 04:26:02;;;;;;;7.65;3.60;;;;;;;13.13;100.00;99155.87;4346268;32;20422;-72
2022/07/28 04:28:28;;;;;;;16.20;3.97;;;;;;;13.54;100.00;99196.66;4370711;32;20124;-74
2022/07/28 04:30:54;;;;;;;9.52;4.85;;;;;;;13.57;100.00;99183.41;4362756;32;20069;-72
2022/07/28 04:33:21;;;;;;;10.32;3.70;;;;;;;13.49;100.00;99156.06;4361614;32;20377;-74
2022/07/28 04:35:47;;;;;;;12.65;4.12;;;;;;;13.70;100.00;99182.09;4362276;32;20053;-73
2022/07/28 04:38:16;;;;;;;8.50;3.65;;;;;;;13.90;100.00;99191.34;4348009;32;20056;-73
2022/07/28 04:40:42;;;;;;;6.70;3.62;;;;;;;13.88;100.00;99161.84;4345629;32;20055;-73
2022/07/28 04:43:11;;;;;;;8.18;4.12;;;;;;;14.10;100.00;99193.25;4349482;32;20547;-74
2022/07/28 04:45:37;;;;;;;17.48;4.95;;;;;;;14.25;100.00;99203.28;4372006;32;20064;-75
2022/07/28 04:48:05;;;;;;;8.40;3.70;;;;;;;14.39;100.00;99199.00;4376291;32;20028;-73
2022/07/28 04:50:32;;;;;;;11.32;4.47;;;;;;;14.57;100.00;99199.50;4378740;32;20445;-73
2022/07/28 04:53:05;;;;;;;12.32;4.10;;;;;;;14.64;100.00;99202.78;4375902;32;20028;-73
2022/07/28 04:55:31;;;;;;;5.57;3.53;;;;;;;14.41;100.00;99175.16;4378685;32;20051;-72
2022/07/28 04:57:58;;;;;;;11.35;4.72;;;;;;;14.67;100.00;99200.34;4377496;32;20507;-73
2022/07/28 05:00:24;;;;;;;9.15;5.57;;;;;;;14.58;100.00;99168.63;4377934;32;20069;-73
2022/07/28 05:02:51;;;;;;;10.50;4.75;;;;;;;15.06;100.00;99201.63;4403742;32;20049;-73
2022/07/28 05:05:17;;;;;;;9.43;4.55;;;;;;;15.26;100.00;99190.72;4404615;32;20372;-73
2022/07/28 05:07:43;;;;;;;13.85;5.22;;;;;;;15.41;100.00;99199.91;4408984;32;20107;-73
2022/07/28 05:10:11;;;;;;;17.52;4.85;;;;;;;15.52;100.00;99209.63;4428218;32;20038;-73
2022/07/28 05:12:38;;;;;;;22.95;6.50;;;;;;;15.53;100.00;99173.25;4430490;32;20046;-73
2022/07/28 05:15:05;;;;;;;22.77;5.50;;;;;;;15.62;100.00;99177.03;4432863;32;20431;-73
2022/07/28 05:17:31;;;;;;;13.60;4.62;;;;;;;16.00;100.00;99197.47;4430623;32;20151;-74
2022/07/28 05:19:58;;;;;;;13.82;5.25;;;;;;;16.08;100.00;99199.59;4433018;32;20791;-73
2022/07/28 05:22:24;;;;;;;25.73;6.95;;;;;;;16.06;100.00;99163.75;4385175;32;20057;-74
2022/07/28 05:24:51;;;;;;;16.62;4.90;;;;;;;16.29;100.00;99184.78;4384990;32;20451;-73
2022/07/28 05:27:17;;;;;;;12.30;4.78;;;;;;;16.25;100.00;99172.84;4385101;32;20442;-73
2022/07/28 05:29:43;;;;;;;14.20;4.95;;;;;;;16.60;100.00;99206.25;4353026;32;20098;-76
2022/07/28 05:32:11;;;;;;;9.48;4.25;;;;;;;16.65;100.00;99213.56;4332438;33;20044;-72
2022/07/28 05:34:37;;;;;;;12.95;3.83;;;;;;;16.53;100.00;99184.03;4333898;33;20042;-73
2022/07/28 05:37:03;;;;;;;12.85;3.78;;;;;;;16.84;100.00;99208.22;4315915;33;20065;-73
2022/07/28 05:39:34;;;;;;;6.82;3.87;;;;;;;16.60;100.00;99183.72;4318636;33;20538;-75
2022/07/28 05:42:00;;;;;;;6.82;3.50;;;;;;;16.98;100.00;99211.13;4316253;33;20104;-72
2022/07/28 05:44:26;;;;;;;8.80;3.20;;;;;;;17.10;100.00;99224.31;4317878;33;20064;-74
2022/07/28 05:46:53;;;;;;;5.57;3.50;;;;;;;16.81;100.00;99185.13;4318170;33;20094;-73
2022/07/28 05:49:20;;;;;;;7.03;3.37;;;;;;;17.15;100.00;99210.66;4316251;33;20025;-73
2022/07/28 05:51:46;;;;;;;8.10;4.15;;;;;;;17.11;100.00;99168.81;4318240;33;20070;-75
2022/07/28 05:54:13;;;;;;;5.60;2.80;;;;;;;17.35;100.00;99215.87;4339747;32;20128;-74
2022/07/28 05:56:39;;;;;;;4.53;2.25;;;;;;;17.15;100.00;99180.72;4348567;32;20031;-72
2022/07/28 05:59:09;;;;;;;6.78;2.50;;;;;;;17.03;100.00;99175.69;4345759;32;20032;-73
2022/07/28 06:01:37;;;;;;;5.40;3.17;;;;;;;17.28;100.00;99182.75;4355850;32;20099;-73
2022/07/28 06:04:03;;;;;;;5.50;2.47;;;;;;;17.38;100.00;99192.72;4377575;32;20127;-73
2022/07/28 06:06:30;;;;;;;5.12;2.40;;;;;;;17.61;100.00;99218.28;4384541;32;20039;-73
2022/07/28 06:08:56;;;;;;;8.77;2.47;;;;;;;17.70;100.00;99211.09;4384383;32;20043;-72
2022/07/28 06:11:23;;;;;;;6.05;2.60;;;;;;;17.91;100.00;99216.28;4383693;32;20521;-72
2022/07/28 06:13:50;;;;;;;22.08;3.00;;;;;;;17.86;100.00;99222.59;4382675;32;20061;-77
2022/07/28 06:16:19;;;;;;;6.47;2.70;;;;;;;17.79;100.00;99201.16;4384302;32;20055;-74
2022/07/28 06:18:45;;;;;;;2.67;2.00;;;;;;;17.80;100.00;99199.25;4384382;32;20032;-73
2022/07/28 06:21:12;;;;;;;6.40;1.75;;;;;;;17.88;100.00;99203.25;4381610;32;20455;-74
2022/07/28 06:23:38;;;;;;;8.15;1.50;;;;;;;17.90;100.00;99209.22;4383925;32;20466;-72
2022/07/28 06:26:05;;;;;;;8.02;4.47;;;;;;;18.10;100.00;99236.16;4381872;32;20073;-74
2022/07/28 06:28:31;;;;;;;9.77;6.07;;;;;;;17.85;100.00;99192.91;4384302;32;20069;-73
2022/07/28 06:31:04;;;;;;;5.20;2.47;;;;;;;18.14;100.00;99220.03;4353046;33;20110;-72
2022/07/28 06:33:31;;;;;;;8.27;2.85;;;;;;;18.26;100.00;99234.03;4392404;32;20046;-72
2022/07/28 06:35:57;;;;;;;5.70;2.40;;;;;;;18.19;100.00;99232.78;4391830;32;20047;-72
2022/07/28 06:38:24;;;;;;;3.17;2.20;;;;;;;18.30;100.00;99231.50;4395255;32;20035;-73
2022/07/28 06:40:50;;;;;;;9.10;3.40;;;;;;;18.20;100.00;99207.97;4367289;32;20393;-73
2022/07/28 06:43:17;;;;;;;7.40;2.05;;;;;;;18.44;100.00;99240.56;4369067;32;20080;-73
2022/07/28 06:45:44;;;;;;;8.73;1.77;;;;;;;18.32;100.00;99204.78;4364968;32;20083;-75
2022/07/28 06:48:12;;;;;;;3.35;1.95;;;;;;;18.57;100.00;99230.00;4366909;32;20035;-73
2022/07/28 06:50:38;;;;;;;1.83;1.42;;;;;;;18.33;100.00;99190.03;4362672;32;20043;-73
2022/07/28 06:53:05;;;;;;;1.48;1.37;;;;;;;18.38;99.21;99241.78;4360993;32;20113;-74
2022/07/28 06:55:31;;;;;;;4.65;1.45;;;;;;;18.47;97.38;99245.41;4361609;32;20040;-74
2022/07/28 06:57:58;;;;;;;5.30;1.73;;;;;;;18.54;97.56;99249.69;4360967;32;20036;-74
2022/07/28 07:00:24;;;;;;;6.75;2.05;;;;;;;18.46;95.99;99243.81;4361168;32;20059;-73
2022/07/28 07:02:51;;;;;;;6.30;2.12;;;;;;;18.43;98.39;99219.09;4360750;32;20058;-73
2022/07/28 07:05:17;;;;;;;4.40;1.60;;;;;;;18.63;99.38;99253.37;4361070;32;20432;-73
2022/07/28 07:07:43;;;;;;;2.85;1.42;;;;;;;18.68;96.66;99239.63;4353230;32;20053;-75
2022/07/28 07:10:10;;;;;;;4.90;1.50;;;;;;;18.52;95.83;99242.62;4367770;32;20547;-72
2022/07/28 07:12:36;;;;;;;5.87;2.30;;;;;;;18.58;98.77;99239.81;4387103;32;20031;-72
2022/07/28 07:15:04;;;;;;;4.60;1.20;;;;;;;18.31;98.22;99186.81;4393754;32;20449;-72
2022/07/28 07:17:30;;;;;;;9.00;2.65;;;;;;;18.78;100.00;99260.47;4394674;32;20080;-72
2022/07/28 07:19:57;;;;;;;7.90;1.70;;;;;;;18.20;100.00;99171.72;4393382;32;20031;-72
2022/07/28 07:22:23;;;;;;;8.55;2.45;;;;;;;18.63;100.00;99256.09;4408825;32;20528;-73
2022/07/28 07:24:50;;;;;;;14.82;2.75;;;;;;;18.74;100.00;99249.38;4410605;32;20072;-73
2022/07/28 07:27:16;;;;;;;2.60;1.10;;;;;;;18.50;100.00;99217.56;4406530;32;20435;-74
2022/07/28 07:29:42;;;;;;;10.57;1.95;;;;;;;18.64;100.00;99222.28;4409467;32;20034;-75
2022/07/28 07:32:09;;;;;;;14.35;1.92;;;;;;;18.77;99.01;99247.97;4396156;32;20063;-73
2022/07/28 07:34:35;;;;;;;3.10;1.70;;;;;;;18.83;100.00;99246.78;4386513;32;20098;-73
2022/07/28 07:37:02;;;;;;;2.47;1.00;;;;;;;18.83;94.64;99250.31;4370053;32;20098;-72
2022/07/28 07:39:28;;;;;;;1.20;0.95;;;;;;;18.86;95.89;99249.75;4369870;32;20040;-73
2022/07/28 07:41:54;;;;;;;5.80;1.87;;;;;;;18.85;91.33;99222.75;4369641;32;20497;-74
2022/07/28 07:44:21;;;;;;;4.37;1.30;;;;;;;19.16;92.13;99253.03;4371704;32;20043;-73
2022/07/28 07:46:47;;;;;;;4.87;1.12;;;;;;;19.26;87.73;99260.22;4371450;32;20473;-74
2022/07/28 07:49:15;;;;;;;4.07;1.45;;;;;;;19.08;87.27;99258.38;4371373;32;20071;-74
2022/07/28 07:51:42;;;;;;;4.37;1.00;;;;;;;18.75;87.85;99272.81;4369992;32;20056;-76
2022/07/28 07:54:08;;;;;;;2.28;0.95;;;;;;;18.89;87.71;99267.44;4348420;32;20043;-73
2022/07/28 07:56:34;;;;;;;6.53;1.40;;;;;;;19.04;85.83;99258.16;4346983;32;20035;-73
2022/07/28 07:59:01;;;;;;;3.92;1.20;;;;;;;19.16;89.31;99269.41;4348704;32;20043;-73
2022/07/28 08:01:27;;;;;;;2.60;1.02;;;;;;;19.05;89.31;99244.22;4325662;33;20077;-73
2022/07/28 08:04:00;;;;;;;3.15;1.65;;;;;;;19.23;90.61;99266.28;4324472;33;20040;-73
2022/07/28 08:06:26;;;;;;;3.92;0.85;;;;;;;19.34;87.30;99277.84;4337293;33;20070;-73
2022/07/28 08:08:59;;;;;;;6.65;1.17;;;;;;;19.49;84.22;99274.00;4341530;33;20040;-73
2022/07/28 08:11:25;;;;;;;1.70;1.10;;;;;;;19.56;83.74;99269.75;4341511;33;20391;-74
2022/07/28 08:13:52;;;;;;;5.87;1.20;;;;;;;19.39;83.85;99236.78;4343934;32;20052;-76
2022/07/28 08:16:18;;;;;;;2.58;1.00;;;;;;;19.60;82.55;99276.19;4354032;32;20147;-74
2022/07/28 08:18:45;;;;;;;5.03;1.40;;;;;;;19.04;85.02;99244.53;4356018;32;20053;-73
2022/07/28 08:21:12;;;;;;;3.72;0.93;;;;;;;18.97;84.88;99235.91;4355352;32;20087;-73
2022/07/28 08:23:38;;;;;;;3.12;1.10;;;;;;;19.31;80.80;99245.66;4355079;32;20092;-73
2022/07/28 08:26:04;;;;;;;2.10;1.30;;;;;;;19.35;79.02;99235.75;4379062;32;20057;-73
2022/07/28 08:28:31;;;;;;;2.72;1.17;;;;;;;19.60;81.73;99265.28;4385718;32;20077;-73
2022/07/28 08:30:57;;;;;;;1.05;0.90;;;;;;;19.70;78.25;99285.31;4385071;32;20068;-73
2022/07/28 08:33:23;;;;;;;2.95;1.17;;;;;;;19.49;75.96;99269.31;4426340;32;20081;-73
2022/07/28 08:35:50;;;;;;;1.55;0.85;;;;;;;19.35;78.79;99268.50;4393284;32;20038;-74
2022/07/28 08:38:16;;;;;;;2.87;1.40;;;;;;;19.12;78.95;99211.06;4389211;32;20039;-74
2022/07/28 08:40:47;;;;;;;5.75;1.30;;;;;;;19.58;78.45;99267.50;4345092;32;20091;-73
2022/07/28 08:43:29;;;;;;;2.22;1.12;;;;;;;19.70;76.50;99264.25;4345595;32;20119;-73
2022/07/28 08:46:02;;;;;;;4.28;1.27;;;;;;;19.80;78.82;99274.22;4343703;33;20065;-76
2022/07/28 08:48:34;;;;;;;7.00;1.62;;;;;;;19.59;72.92;99206.31;4346142;32;20082;-73
2022/07/28 08:51:10;;;;;;;8.18;1.27;;;;;;;19.56;69.18;99220.59;4348622;32;20365;-73
2022/07/28 08:53:39;;;;;;;3.83;0.88;;;;;;;19.85;65.19;99244.06;4319217;33;20070;-74
2022/07/28 08:56:07;;;;;;;2.87;1.08;;;;;;;19.73;65.64;99247.25;4317030;33;20028;-73
2022/07/28 08:58:35;;;;;;;1.20;1.10;;;;;;;19.94;67.60;99272.28;4289053;33;20055;-73
2022/07/28 09:01:03;;;;;;;3.45;1.20;;;;;;;19.93;70.70;99267.91;4289719;33;20041;-73
2022/07/28 09:03:30;;;;;;;1.70;1.00;;;;;;;19.89;63.39;99277.84;4287521;33;20380;-74
2022/07/28 09:05:57;;;;;;;2.22;0.82;;;;;;;19.87;62.53;99266.41;4291544;33;20051;-73
2022/07/28 09:08:24;;;;;;;2.28;0.95;;;;;;;19.86;61.71;99245.66;4311067;33;20463;-73
2022/07/28 09:10:51;;;;;;;2.83;1.30;;;;;;;19.93;68.51;99267.91;4311752;33;20380;-75
2022/07/28 09:13:18;;;;;;;0.77;0.77;;;;;;;20.00;67.17;99278.44;4340492;33;20474;-73
2022/07/28 09:15:45;;;;;;;9.88;1.30;;;;;;;20.08;68.62;99274.16;4338728;33;20119;-75
2022/07/28 09:18:14;;;;;;;3.20;1.08;;;;;;;19.98;66.77;99230.69;4339368;33;20095;-73
2022/07/28 09:20:41;;;;;;;2.72;1.20;;;;;;;20.23;67.93;99281.22;4340239;33;20058;-73
2022/07/28 09:23:09;;;;;;;2.12;0.95;;;;;;;20.01;65.62;99246.44;4340041;33;20069;-72
2022/07/28 09:25:36;;;;;;;4.57;0.90;;;;;;;20.32;66.51;99258.28;4353090;32;20465;-73
2022/07/28 09:28:13;;;;;;;2.35;0.80;;;;;;;20.32;64.65;99241.88;4352751;32;20046;-73
2022/07/28 09:30:45;;;;;;;5.28;1.10;;;;;;;20.55;67.36;99272.00;4354480;32;20040;-73
2022/07/28 09:33:11;;;;;;;5.20;1.40;;;;;;;20.43;63.75;99269.00;4352705;32;20098;-73
2022/07/28 09:35:57;;;;;;;1.35;0.60;;;;;;;20.40;64.41;99240.34;4359680;32;20057;-76
2022/07/28 09:38:26;;;;;;;6.43;1.60;;;;;;;20.57;61.89;99269.78;4356059;32;20515;-74
2022/07/28 09:40:57;;;;;;;6.93;1.10;;;;;;;20.51;60.34;99244.44;4396665;32;20022;-74
2022/07/28 09:43:37;;;;;;;4.67;1.40;;;;;;;20.49;60.39;99234.97;4391290;32;20212;-74
2022/07/28 09:46:10;;;;;;;3.17;1.80;;;;;;;20.44;60.78;99237.81;4366786;32;20210;-73
2022/07/28 09:48:48;;;;;;;4.55;2.45;;;;;;;20.93;59.69;99276.31;4369444;32;20069;-76
2022/07/28 09:51:22;;;;;;;4.00;1.60;;;;;;;20.77;57.09;99243.84;4369541;32;20054;-73
2022/07/28 09:53:50;;;;;;;4.18;2.95;;;;;;;20.62;57.96;99222.34;4369021;32;20065;-74
2022/07/28 09:56:17;;;;;;;1.30;1.20;;;;;;;21.08;59.78;99266.88;4369210;32;20121;-72
2022/07/28 09:58:58;;;;;;;7.55;1.17;;;;;;;21.17;57.37;99278.69;4368243;32;20173;-75
2022/07/28 10:01:25;;;;;;;2.53;1.20;;;;;;;20.83;55.94;99222.66;4364682;32;20053;-74
2022/07/28 10:03:55;;;;;;;1.10;1.00;;;;;;;21.17;57.89;99257.62;4364212;32;20032;-73
2022/07/28 10:06:29;;;;;;;1.02;1.00;;;;;;;20.83;55.44;99234.41;4368093;32;20035;-75
2022/07/28 10:08:59;;;;;;;1.42;1.17;;;;;;;20.78;58.30;99231.78;4364556;32;20073;-73
2022/07/28 10:11:28;;;;;;;2.67;1.45;;;;;;;21.21;59.84;99255.06;4364900;32;20049;-73
2022/07/28 10:14:02;;;;;;;4.20;1.35;;;;;;;21.44;58.27;99257.72;4363656;32;20044;-73
2022/07/28 10:16:34;;;;;;;1.95;1.20;;;;;;;21.54;55.37;99274.72;4357673;32;20100;-72
2022/07/28 10:19:03;;;;;;;7.97;1.10;;;;;;;21.35;55.24;99244.81;4382677;32;20038;-74
2022/07/28 10:21:38;;;;;;;0.82;0.82;;;;;;;21.39;56.86;99239.50;4383130;32;20372;-73
2022/07/28 10:24:07;;;;;;;1.27;0.98;;;;;;;21.61;56.67;99267.97;4383532;32;20043;-74
2022/07/28 10:26:38;;;;;;;2.08;1.10;;;;;;;21.88;55.56;99261.44;4383696;32;20074;-73
2022/07/28 10:29:08;;;;;;;1.20;0.80;;;;;;;21.84;53.96;99227.56;4387129;32;20035;-72
2022/07/28 10:31:45;;;;;;;1.00;1.00;;;;;;;21.68;53.84;99222.53;4398080;32;20038;-73
2022/07/28 10:34:23;;;;;;;2.15;1.58;;;;;;;21.84;57.50;99230.31;4366410;32;20485;-73
2022/07/28 10:36:53;;;;;;;3.37;1.27;;;;;;;21.98;53.88;99255.63;4368755;32;20040;-73
2022/07/28 10:39:22;;;;;;;1.27;1.10;;;;;;;22.16;53.05;99247.44;4369130;32;20061;-73
2022/07/28 10:41:49;;;;;;;1.75;0.90;;;;;;;21.92;52.84;99219.38;4367032;32;20459;-73
2022/07/28 10:44:18;;;;;;;4.07;1.12;;;;;;;21.85;52.99;99204.50;4370313;32;20099;-72
2022/07/28 10:46:45;;;;;;;1.08;1.05;;;;;;;22.19;55.91;99244.03;4377230;32;20035;-73
2022/07/28 10:49:19;;;;;;;1.00;1.00;;;;;;;22.42;54.20;99226.34;4401479;32;20380;-74
2022/07/28 10:51:54;;;;;;;3.20;1.20;;;;;;;22.50;51.78;99227.47;4402296;32;20692;-73
2022/07/28 10:54:28;;;;;;;3.90;1.00;;;;;;;22.85;52.10;99244.66;4402209;32;20090;-73
2022/07/28 10:56:56;;;;;;;2.75;1.42;;;;;;;22.85;52.27;99239.19;4399707;32;20039;-73
2022/07/28 10:59:50;;;;;;;6.78;1.30;;;;;;;22.97;50.78;99245.94;4398955;32;20048;-75
2022/07/28 11:02:49;;;;;;;5.60;1.23;;;;;;;22.81;50.16;99249.19;4400976;32;20131;-73
2022/07/28 11:05:38;;;;;;;7.12;0.80;;;;;;;23.15;51.34;99241.22;4413865;32;20066;-73
2022/07/28 11:08:07;;;;;;;1.58;0.90;;;;;;;23.44;49.01;99242.38;4432933;32;20039;-72
2022/07/28 11:10:42;;;;;;;7.93;1.37;;;;;;;23.42;48.18;99234.47;4431339;32;20099;-73
2022/07/28 11:13:23;;;;;;;5.97;1.48;;;;;;;23.92;48.20;99239.25;4434980;32;20403;-72
2022/07/28 11:15:50;;;;;;;1.75;0.90;;;;;;;24.34;46.83;99212.88;4400471;32;20028;-74
2022/07/28 11:18:17;;;;;;;6.37;1.37;;;;;;;24.86;44.67;99208.81;4401937;32;20136;-73
2022/07/28 11:20:52;;;;;;;1.73;1.30;;;;;;;25.24;42.33;99238.03;4402048;32;20337;-73
2022/07/28 11:23:41;;;;;;;4.57;1.25;;;;;;;25.50;42.54;99246.03;4400934;32;20031;-72
2022/07/28 11:26:23;;;;;;;3.62;1.30;;;;;;;25.21;41.97;99234.03;4400506;32;20267;-73
2022/07/28 11:28:58;;;;;;;;;;;;;;;25.41;41.40;99237.84;4402273;32;20039;-73
2022/07/28 11:31:43;;;;;;;2.53;1.87;;;;;;;25.28;41.75;99231.53;4398705;32;19946;-74
2022/07/28 11:34:13;;;;;;;5.97;1.40;;;;;;;26.30;40.83;99227.97;4400527;32;20042;-73
2022/07/28 11:37:06;;;;;;;2.92;0.90;;;;;;;27.08;38.38;99233.28;4369934;32;20035;-73
2022/07/28 11:39:40;;;;;;;2.40;0.88;;;;;;;26.63;38.17;99224.19;4370121;32;20114;-72
2022/07/28 11:42:29;;;;;;;3.92;0.90;;;;;;;27.04;38.24;99226.84;4371444;32;20408;-74